Seivern, South Carolina
Current Conditions -  °F | °C
As of 1:55 AM on Monday 24 Nov 2014 (Local Time) from KAIK Reporting Station
Overcast Overcast  
Wind Chill: 64°   Ceiling: 2000
Heat Index: 64°   Visibility: 10mi
Dew Point: 64°   Wind: 12mph
Humidity: 100%   Direction: 220°SW
Pressure: 29.82"   Gusts: 17mph
Location:  33.6528°N, 81.4253°W
Report Text: KAIK 240655Z AUTO 22010G15KT 10SM SCT012 OVC020 18/18 A2982 RMK AO2 PNO
Loading
Personal Weather Stations






























Interactive Weather Map New forecast layout! Learn more

10-Day Weather Forecast

Advertisements
Track Severe Weather on mobile